Freuchie, United Kingdom
Current Conditions -  °F | °C
As of 10:50 PM on Tuesday 27 Jan 2015 (Local Time) from EGQL Reporting Station
Broken Clouds Broken Clouds  
Wind Chill: 36°   Ceiling: 1300
Heat Index: 45°   Visibility: 6mi
Dew Point: 41°   Wind: 21mph
Humidity: 87%   Direction: 250°WSW
Pressure: 29.68"   Gusts: NA
Location:  56.25°N, 3.16°W
Report Text: EGQL 272250Z 25018KT 9999 BKN013 07/05 Q1005 GRN
Loading
Personal Weather Stations






























Interactive Weather Map New forecast layout! Learn more

10-Day Weather Forecast

Advertisements
Track Severe Weather on mobile